createdAt,value
2024-02-24T00:00:20.658Z,2.63
2024-02-24T00:04:02.993Z,3.45
2024-02-24T00:07:45.174Z,2.97
2024-02-24T00:11:31.616Z,3.40
2024-02-24T00:15:15.782Z,3.75
2024-02-24T00:19:00.524Z,3.22
2024-02-24T00:22:42.764Z,3.53
2024-02-24T00:26:25.528Z,3.50
2024-02-24T00:30:10.003Z,3.78
2024-02-24T00:33:52.041Z,2.92
2024-02-24T00:37:34.103Z,2.97
2024-02-24T00:41:16.796Z,3.00
2024-02-24T00:44:58.853Z,2.85
2024-02-24T00:48:42.366Z,3.08
2024-02-24T00:52:27.240Z,3.00
2024-02-24T00:56:09.564Z,3.17
2024-02-24T00:59:52.239Z,3.60
2024-02-24T01:03:34.634Z,3.15
2024-02-24T01:07:17.160Z,3.47
2024-02-24T01:10:59.531Z,3.25
2024-02-24T01:14:41.803Z,3.08
2024-02-24T01:18:24.681Z,3.67
2024-02-24T01:22:07.638Z,3.15
2024-02-24T01:25:49.684Z,3.28
2024-02-24T01:29:32.844Z,3.28
2024-02-24T01:33:15.104Z,3.28
2024-02-24T01:36:57.966Z,3.45
2024-02-24T01:40:39.938Z,3.08
2024-02-24T01:44:21.957Z,3.35
2024-02-24T01:48:05.278Z,3.13
2024-02-24T01:51:47.848Z,2.75
2024-02-24T01:55:30.189Z,3.45
2024-02-24T01:59:12.333Z,2.90
2024-02-24T02:02:55.479Z,2.70
2024-02-24T02:06:38.368Z,3.03
2024-02-24T02:10:20.494Z,2.72
2024-02-24T02:14:02.526Z,2.90
2024-02-24T02:17:44.688Z,2.30
2024-02-24T02:21:28.063Z,2.30
2024-02-24T02:25:10.110Z,2.55
2024-02-24T02:28:52.169Z,2.83
2024-02-24T02:32:34.530Z,2.65
2024-02-24T02:36:16.656Z,2.58
2024-02-24T02:40:02.454Z,2.50
2024-02-24T02:43:45.436Z,2.65
2024-02-24T02:47:27.719Z,2.40
2024-02-24T02:51:09.786Z,2.60
2024-02-24T02:54:53.568Z,2.13
2024-02-24T02:58:35.664Z,2.10
2024-02-24T03:02:17.686Z,2.78
2024-02-24T03:05:59.715Z,3.35
2024-02-24T03:09:47.873Z,2.40
2024-02-24T03:13:30.280Z,2.00
2024-02-24T03:17:12.279Z,2.30
2024-02-24T03:20:54.332Z,2.08
2024-02-24T03:24:36.485Z,2.10
2024-02-24T03:28:18.592Z,2.30
2024-02-24T03:32:01.801Z,1.98
2024-02-24T03:35:43.792Z,1.73
2024-02-24T03:39:25.788Z,1.90
2024-02-24T03:43:07.815Z,1.55
2024-02-24T03:46:49.899Z,1.83
2024-02-24T03:50:32.028Z,1.70
2024-02-24T03:54:14.111Z,1.70
2024-02-24T03:57:56.445Z,1.75
2024-02-24T04:01:41.673Z,1.70
2024-02-24T04:05:26.676Z,1.30
2024-02-24T04:09:08.808Z,1.90
2024-02-24T04:12:50.799Z,1.33
2024-02-24T04:16:32.776Z,1.42
2024-02-24T04:20:15.982Z,1.65
2024-02-24T04:23:58.106Z,1.75
2024-02-24T04:27:40.084Z,1.50
2024-02-24T04:31:23.089Z,1.58
2024-02-24T04:35:05.535Z,1.50
2024-02-24T04:38:47.613Z,1.40
2024-02-24T04:42:29.663Z,1.50
2024-02-24T04:46:11.660Z,1.00
2024-02-24T04:49:53.855Z,1.52
2024-02-24T04:53:35.883Z,1.50
2024-02-24T04:57:17.933Z,1.80
2024-02-24T05:01:00.073Z,1.80
2024-02-24T05:04:42.175Z,1.70
2024-02-24T05:08:24.268Z,1.80
2024-02-24T05:12:07.155Z,1.92
2024-02-24T05:15:49.312Z,1.60
2024-02-24T05:19:35.037Z,1.52
2024-02-24T05:23:17.856Z,1.17
2024-02-24T05:26:59.881Z,1.80
2024-02-24T05:30:41.855Z,1.40
2024-02-24T05:34:24.917Z,1.83
2024-02-24T05:38:07.054Z,1.80
2024-02-24T05:41:50.529Z,1.60
2024-02-24T05:45:32.501Z,1.85
2024-02-24T05:49:17.347Z,1.30
2024-02-24T05:52:59.385Z,1.42
2024-02-24T05:56:42.701Z,1.70
2024-02-24T06:00:24.719Z,1.35
2024-02-24T06:04:06.841Z,1.48
2024-02-24T06:07:48.817Z,1.35
2024-02-24T06:11:30.912Z,1.63
2024-02-24T06:15:12.985Z,1.58
2024-02-24T06:18:55.189Z,1.95
2024-02-24T06:22:37.195Z,2.20
2024-02-24T06:26:19.302Z,1.80
2024-02-24T06:30:01.328Z,1.60
2024-02-24T06:33:47.036Z,1.70
2024-02-24T06:37:29.089Z,1.60
2024-02-24T06:41:11.154Z,1.60
2024-02-24T06:44:53.418Z,1.33
2024-02-24T06:48:35.526Z,1.67
2024-02-24T06:52:17.588Z,1.48
2024-02-24T06:56:09.185Z,1.40
2024-02-24T06:59:51.301Z,1.60
2024-02-24T07:03:34.704Z,1.45
2024-02-24T07:07:17.643Z,1.30
2024-02-24T07:10:59.687Z,1.75
2024-02-24T07:14:41.726Z,1.80
2024-02-24T07:18:23.782Z,1.77
2024-02-24T07:22:05.942Z,1.40
2024-02-24T07:25:47.917Z,1.80
2024-02-24T07:29:30.579Z,1.30
2024-02-24T07:33:16.062Z,1.70
2024-02-24T07:36:59.657Z,1.92
2024-02-24T07:40:42.786Z,1.90
2024-02-24T07:44:24.786Z,1.50
2024-02-24T07:48:10.126Z,1.50
2024-02-24T07:51:52.529Z,2.67
2024-02-24T07:55:34.573Z,3.75
2024-02-24T07:59:16.568Z,2.97
2024-02-24T08:02:58.682Z,3.60
2024-02-24T08:06:40.738Z,3.63
2024-02-24T08:10:23.736Z,2.20
2024-02-24T08:14:09.160Z,1.65
2024-02-24T08:17:52.911Z,1.50
2024-02-24T08:21:39.177Z,1.75
2024-02-24T08:25:21.604Z,1.95
2024-02-24T08:29:04.149Z,1.42
2024-02-24T08:32:47.955Z,1.48
2024-02-24T08:36:31.161Z,1.50
2024-02-24T08:40:16.904Z,2.35
2024-02-24T08:44:02.471Z,2.15
2024-02-24T08:47:44.834Z,1.95
2024-02-24T08:51:27.686Z,1.52
2024-02-24T08:55:09.783Z,1.90
2024-02-24T08:58:52.341Z,2.08
2024-02-24T09:02:34.863Z,1.85
2024-02-24T09:06:19.689Z,1.77
2024-02-24T09:10:04.735Z,1.75
2024-02-24T09:13:48.697Z,1.60
2024-02-24T09:17:30.781Z,1.98
2024-02-24T09:21:14.743Z,2.30
2024-02-24T09:24:56.767Z,1.77
2024-02-24T09:28:39.118Z,1.92
2024-02-24T09:32:21.991Z,1.50
2024-02-24T09:36:04.258Z,1.42
2024-02-24T09:39:47.627Z,1.50
2024-02-24T09:43:31.100Z,1.23
2024-02-24T09:47:14.459Z,1.35
2024-02-24T09:51:01.015Z,1.33
2024-02-24T09:54:51.880Z,1.40
2024-02-24T09:58:35.443Z,1.40
2024-02-24T10:02:18.427Z,1.35
2024-02-24T10:06:01.048Z,1.40
2024-02-24T10:09:43.087Z,1.50
2024-02-24T10:13:25.131Z,1.40
2024-02-24T10:17:08.388Z,1.90
2024-02-24T10:20:52.727Z,2.00
2024-02-24T10:24:36.105Z,2.08
2024-02-24T10:28:18.247Z,1.60
2024-02-24T10:32:01.432Z,1.45
2024-02-24T10:35:44.422Z,1.98
2024-02-24T10:39:28.218Z,1.40
2024-02-24T10:43:11.182Z,1.63
2024-02-24T10:46:53.280Z,1.88
2024-02-24T10:50:37.143Z,1.60
2024-02-24T10:54:24.582Z,1.67
2024-02-24T10:58:08.400Z,1.63
2024-02-24T11:01:52.023Z,1.40
2024-02-24T11:05:36.145Z,1.27
2024-02-24T11:09:34.530Z,1.27
2024-02-24T11:13:16.588Z,1.10
2024-02-24T11:17:01.432Z,0.90
2024-02-24T11:20:43.674Z,0.60
2024-02-24T11:24:37.137Z,0.57
2024-02-24T11:28:24.221Z,0.77
2024-02-24T11:32:18.021Z,0.73
2024-02-24T11:36:01.955Z,0.68
2024-02-24T11:39:45.836Z,0.60
2024-02-24T11:43:29.178Z,0.65
2024-02-24T11:47:15.286Z,0.60
2024-02-24T11:51:00.594Z,0.43
2024-02-24T11:54:49.233Z,0.40
2024-02-24T11:58:32.357Z,0.60
2024-02-24T12:02:15.742Z,0.50
2024-02-24T12:06:08.409Z,0.50
2024-02-24T12:09:52.505Z,0.50
2024-02-24T12:13:38.248Z,0.60
2024-02-24T12:17:21.876Z,0.50
2024-02-24T12:21:06.425Z,0.40
2024-02-24T12:24:48.562Z,0.60
2024-02-24T12:28:33.069Z,0.60
2024-02-24T12:32:15.180Z,0.70
2024-02-24T12:35:57.534Z,0.90
2024-02-24T12:39:44.014Z,0.50
2024-02-24T12:43:25.994Z,0.50
2024-02-24T12:47:08.035Z,0.60
2024-02-24T12:50:51.002Z,0.60
2024-02-24T12:54:33.378Z,0.50
2024-02-24T12:58:17.926Z,0.60
2024-02-24T13:02:01.186Z,0.65
2024-02-24T13:05:43.197Z,0.50
2024-02-24T13:09:27.548Z,0.98
2024-02-24T13:13:09.727Z,0.50
2024-02-24T13:16:51.761Z,0.60
2024-02-24T13:20:34.028Z,0.50
2024-02-24T13:24:16.117Z,0.45
2024-02-24T13:27:58.248Z,0.35
2024-02-24T13:31:40.362Z,0.50
2024-02-24T13:35:22.366Z,0.55
2024-02-24T13:39:05.599Z,0.40
2024-02-24T13:42:48.944Z,0.47
2024-02-24T13:46:31.513Z,0.50
2024-02-24T13:50:13.695Z,0.60
2024-02-24T13:53:55.845Z,0.60
2024-02-24T13:57:39.052Z,0.70
2024-02-24T14:01:22.230Z,0.70
2024-02-24T14:05:06.556Z,0.77
2024-02-24T14:08:49.802Z,0.80
2024-02-24T14:12:31.863Z,0.88
2024-02-24T14:16:13.899Z,0.50
2024-02-24T14:19:56.568Z,0.80
2024-02-24T14:23:39.221Z,0.40
2024-02-24T14:27:21.264Z,0.40
2024-02-24T14:31:06.177Z,0.40
2024-02-24T14:34:48.297Z,0.52
2024-02-24T14:38:30.397Z,0.60
2024-02-24T14:42:12.787Z,0.60
2024-02-24T14:46:01.230Z,0.60
2024-02-24T14:49:43.477Z,0.88
2024-02-24T14:53:27.955Z,0.50
2024-02-24T14:57:13.770Z,0.50
2024-02-24T15:00:56.127Z,0.60
2024-02-24T15:04:38.620Z,0.50
2024-02-24T15:08:21.118Z,0.55
2024-02-24T15:12:03.459Z,0.50
2024-02-24T15:15:45.451Z,0.75
2024-02-24T15:19:28.005Z,0.68
2024-02-24T15:23:10.720Z,0.60
2024-02-24T15:26:56.903Z,0.60
2024-02-24T15:30:40.830Z,0.50
2024-02-24T15:34:28.664Z,0.68
2024-02-24T15:38:13.672Z,0.60
2024-02-24T15:41:56.811Z,0.57
2024-02-24T15:45:39.792Z,2.20
2024-02-24T15:49:21.948Z,0.40
2024-02-24T15:53:04.164Z,0.90
2024-02-24T15:56:53.692Z,0.50
2024-02-24T16:00:38.620Z,1.30
2024-02-24T16:04:20.627Z,1.58
2024-02-24T16:08:03.345Z,2.58
2024-02-24T16:11:48.467Z,1.10
2024-02-24T16:15:30.788Z,0.80
2024-02-24T16:19:14.495Z,0.65
2024-02-24T16:22:59.110Z,0.50
2024-02-24T16:26:41.200Z,1.30
2024-02-24T16:30:24.122Z,1.42
2024-02-24T16:34:06.958Z,0.73
2024-02-24T16:37:50.352Z,0.90
2024-02-24T16:41:35.915Z,1.10
2024-02-24T16:45:17.953Z,0.80
2024-02-24T16:49:00.441Z,0.90
2024-02-24T16:52:42.561Z,0.70
2024-02-24T16:56:24.625Z,0.63
2024-02-24T17:00:10.035Z,1.20
2024-02-24T17:03:52.656Z,1.70
2024-02-24T17:07:35.428Z,1.10
2024-02-24T17:11:21.670Z,1.10
2024-02-24T17:15:05.940Z,0.88
2024-02-24T17:18:50.440Z,1.10
2024-02-24T17:22:34.301Z,1.60
2024-02-24T17:26:17.842Z,1.85
2024-02-24T17:30:00.457Z,1.65
2024-02-24T17:33:49.225Z,1.90
2024-02-24T17:37:35.259Z,1.40
2024-02-24T17:41:17.390Z,1.23
2024-02-24T17:48:42.901Z,1.00
2024-02-24T17:52:29.643Z,1.17
2024-02-24T17:56:13.573Z,1.20
2024-02-24T17:59:55.643Z,1.48
2024-02-24T18:03:37.770Z,2.13
2024-02-24T18:07:19.976Z,2.10
2024-02-24T18:11:01.975Z,2.13
2024-02-24T18:14:46.955Z,2.30
2024-02-24T18:18:29.131Z,3.60
2024-02-24T18:22:14.459Z,3.13
2024-02-24T18:25:57.972Z,3.20
2024-02-24T18:29:45.822Z,3.35
2024-02-24T18:33:30.235Z,3.55
2024-02-24T18:37:13.419Z,3.60
2024-02-24T18:40:55.460Z,4.50
2024-02-24T18:44:40.010Z,4.18
2024-02-24T18:48:23.726Z,4.65
2024-02-24T18:52:08.817Z,5.00
2024-02-24T18:55:51.435Z,5.65
2024-02-24T18:59:33.712Z,7.35
2024-02-24T19:03:15.825Z,7.38
2024-02-24T19:06:58.556Z,7.53
2024-02-24T19:10:41.889Z,7.88
2024-02-24T19:14:24.129Z,7.57
2024-02-24T19:18:12.712Z,7.72
2024-02-24T19:21:55.958Z,8.02
2024-02-24T19:25:38.023Z,9.20
2024-02-24T19:29:21.304Z,8.85
2024-02-24T19:33:03.860Z,9.25
2024-02-24T19:36:49.480Z,9.75
2024-02-24T19:40:34.644Z,11.45
2024-02-24T19:44:20.887Z,10.93
2024-02-24T19:48:04.766Z,10.25
2024-02-24T19:51:48.049Z,10.13
2024-02-24T19:55:33.030Z,10.05
2024-02-24T19:59:16.067Z,9.55
2024-02-24T20:02:58.646Z,9.45
2024-02-24T20:06:42.247Z,5.88
2024-02-24T20:10:27.585Z,5.50
2024-02-24T20:14:13.054Z,5.63
2024-02-24T20:17:57.891Z,5.38
2024-02-24T20:21:40.377Z,5.82
2024-02-24T20:25:22.512Z,7.03
2024-02-24T20:29:09.038Z,7.30
2024-02-24T20:32:54.553Z,8.10
2024-02-24T20:36:37.275Z,7.80
2024-02-24T20:40:20.544Z,7.90
2024-02-24T20:44:02.814Z,8.48
2024-02-24T20:47:45.160Z,7.70
2024-02-24T20:51:30.157Z,7.70
2024-02-24T20:55:12.342Z,7.10
2024-02-24T20:58:58.060Z,6.80
2024-02-24T21:02:45.614Z,6.28
2024-02-24T21:06:28.353Z,5.95
2024-02-24T21:10:14.872Z,6.80
2024-02-24T21:14:01.257Z,6.65
2024-02-24T21:17:46.571Z,7.03
2024-02-24T21:21:33.868Z,6.57
2024-02-24T21:25:20.390Z,8.32
2024-02-24T21:29:05.254Z,7.25
2024-02-24T21:32:47.685Z,6.82
2024-02-24T21:36:29.994Z,7.00
2024-02-24T21:40:13.992Z,6.93
2024-02-24T21:43:59.136Z,6.47
2024-02-24T21:47:42.418Z,5.38
2024-02-24T21:51:24.773Z,5.13
2024-02-24T21:55:06.967Z,5.13
2024-02-24T21:58:48.960Z,5.35
2024-02-24T22:02:31.752Z,5.28
2024-02-24T22:06:16.526Z,4.88
2024-02-24T22:10:04.813Z,5.50
2024-02-24T22:13:53.143Z,4.18
2024-02-24T22:17:35.191Z,4.30
2024-02-24T22:21:18.948Z,4.63
2024-02-24T22:25:02.820Z,4.78
2024-02-24T22:28:46.400Z,5.10
2024-02-24T22:32:29.373Z,5.20
2024-02-24T22:36:12.827Z,5.43
2024-02-24T22:39:57.609Z,5.20
2024-02-24T22:43:39.845Z,5.65
2024-02-24T22:47:25.600Z,5.53
2024-02-24T22:51:14.286Z,6.32
2024-02-24T22:54:57.377Z,5.88
2024-02-24T22:58:42.397Z,6.40
2024-02-24T23:02:24.629Z,5.40
2024-02-24T23:06:08.609Z,5.78
2024-02-24T23:09:52.978Z,5.85
2024-02-24T23:13:35.032Z,6.03
2024-02-24T23:17:19.980Z,5.57
2024-02-24T23:21:02.145Z,6.45
2024-02-24T23:24:45.548Z,6.18
2024-02-24T23:28:27.571Z,6.30
2024-02-24T23:32:11.309Z,5.38
2024-02-24T23:35:53.349Z,5.25
2024-02-24T23:39:35.370Z,5.65
2024-02-24T23:43:17.429Z,5.00
2024-02-24T23:47:00.943Z,5.22
2024-02-24T23:50:43.007Z,4.88
2024-02-24T23:54:28.760Z,5.18
2024-02-24T23:58:10.778Z,5.43
